sensor_id;sensor_type;location;lat;lon;timestamp;P1;durP1;ratioP1;P2;durP2;ratioP2
73733;SDS011;62039;50.000;9.064;2022-08-01T00:00:41;1.00;;;0.90;;
73733;SDS011;62039;50.000;9.064;2022-08-01T00:03:08;0.90;;;0.90;;
73733;SDS011;62039;50.000;9.064;2022-08-01T00:05:36;1.10;;;0.73;;
73733;SDS011;62039;50.000;9.064;2022-08-01T00:08:03;0.80;;;0.80;;
73733;SDS011;62039;50.000;9.064;2022-08-01T00:10:30;0.80;;;0.80;;
73733;SDS011;62039;50.000;9.064;2022-08-01T00:12:56;1.10;;;0.80;;
73733;SDS011;62039;50.000;9.064;2022-08-01T00:15:23;1.13;;;0.77;;
73733;SDS011;62039;50.000;9.064;2022-08-01T00:17:49;0.90;;;0.80;;
73733;SDS011;62039;50.000;9.064;2022-08-01T00:20:16;0.80;;;0.80;;
73733;SDS011;62039;50.000;9.064;2022-08-01T00:22:44;1.57;;;0.70;;
73733;SDS011;62039;50.000;9.064;2022-08-01T00:25:10;1.13;;;0.90;;
73733;SDS011;62039;50.000;9.064;2022-08-01T00:27:37;1.00;;;0.70;;
73733;SDS011;62039;50.000;9.064;2022-08-01T00:30:04;1.63;;;0.90;;
73733;SDS011;62039;50.000;9.064;2022-08-01T00:32:39;1.10;;;0.80;;
73733;SDS011;62039;50.000;9.064;2022-08-01T00:35:06;1.47;;;0.87;;
73733;SDS011;62039;50.000;9.064;2022-08-01T00:37:33;0.80;;;0.80;;
73733;SDS011;62039;50.000;9.064;2022-08-01T00:40:01;1.23;;;0.90;;
73733;SDS011;62039;50.000;9.064;2022-08-01T00:42:27;0.90;;;0.90;;
73733;SDS011;62039;50.000;9.064;2022-08-01T00:44:54;1.33;;;1.10;;
73733;SDS011;62039;50.000;9.064;2022-08-01T00:47:20;1.10;;;1.00;;
73733;SDS011;62039;50.000;9.064;2022-08-01T00:49:47;0.87;;;0.83;;
73733;SDS011;62039;50.000;9.064;2022-08-01T00:52:13;0.90;;;0.90;;
73733;SDS011;62039;50.000;9.064;2022-08-01T00:54:40;1.23;;;1.10;;
73733;SDS011;62039;50.000;9.064;2022-08-01T00:57:08;1.10;;;1.10;;
73733;SDS011;62039;50.000;9.064;2022-08-01T00:59:36;2.77;;;1.17;;
73733;SDS011;62039;50.000;9.064;2022-08-01T01:02:05;1.17;;;1.07;;
73733;SDS011;62039;50.000;9.064;2022-08-01T01:04:41;1.73;;;1.10;;
73733;SDS011;62039;50.000;9.064;2022-08-01T01:07:09;1.20;;;1.10;;
73733;SDS011;62039;50.000;9.064;2022-08-01T01:09:43;1.90;;;1.20;;
73733;SDS011;62039;50.000;9.064;2022-08-01T01:12:19;1.00;;;0.80;;
73733;SDS011;62039;50.000;9.064;2022-08-01T01:14:51;1.10;;;1.00;;
73733;SDS011;62039;50.000;9.064;2022-08-01T01:17:25;1.20;;;1.10;;
73733;SDS011;62039;50.000;9.064;2022-08-01T01:20:16;1.53;;;1.00;;
73733;SDS011;62039;50.000;9.064;2022-08-01T01:22:53;1.20;;;1.10;;
73733;SDS011;62039;50.000;9.064;2022-08-01T01:25:32;1.00;;;0.90;;
73733;SDS011;62039;50.000;9.064;2022-08-01T01:28:15;1.30;;;1.20;;
73733;SDS011;62039;50.000;9.064;2022-08-01T01:30:49;1.20;;;1.00;;
73733;SDS011;62039;50.000;9.064;2022-08-01T01:33:19;1.30;;;1.20;;
73733;SDS011;62039;50.000;9.064;2022-08-01T01:35:48;1.80;;;1.30;;
73733;SDS011;62039;50.000;9.064;2022-08-01T01:38:18;1.10;;;1.00;;
73733;SDS011;62039;50.000;9.064;2022-08-01T01:40:50;1.17;;;1.07;;
73733;SDS011;62039;50.000;9.064;2022-08-01T01:43:18;1.20;;;1.10;;
73733;SDS011;62039;50.000;9.064;2022-08-01T01:45:46;1.20;;;1.10;;
73733;SDS011;62039;50.000;9.064;2022-08-01T01:48:19;1.10;;;1.00;;
73733;SDS011;62039;50.000;9.064;2022-08-01T01:50:46;1.20;;;1.10;;
73733;SDS011;62039;50.000;9.064;2022-08-01T01:53:16;1.30;;;1.20;;
73733;SDS011;62039;50.000;9.064;2022-08-01T01:55:46;1.07;;;0.90;;
73733;SDS011;62039;50.000;9.064;2022-08-01T01:58:15;1.17;;;1.07;;
73733;SDS011;62039;50.000;9.064;2022-08-01T02:00:44;1.40;;;1.07;;
73733;SDS011;62039;50.000;9.064;2022-08-01T02:03:17;1.17;;;1.07;;
73733;SDS011;62039;50.000;9.064;2022-08-01T02:05:45;1.20;;;1.10;;
73733;SDS011;62039;50.000;9.064;2022-08-01T02:08:14;1.13;;;1.00;;
73733;SDS011;62039;50.000;9.064;2022-08-01T02:10:42;2.10;;;1.00;;
73733;SDS011;62039;50.000;9.064;2022-08-01T02:13:10;1.00;;;1.00;;
73733;SDS011;62039;50.000;9.064;2022-08-01T02:15:37;1.13;;;1.03;;
73733;SDS011;62039;50.000;9.064;2022-08-01T02:18:25;1.00;;;0.90;;
73733;SDS011;62039;50.000;9.064;2022-08-01T02:20:52;1.30;;;1.10;;
73733;SDS011;62039;50.000;9.064;2022-08-01T02:23:20;1.00;;;0.90;;
73733;SDS011;62039;50.000;9.064;2022-08-01T02:25:49;1.23;;;0.90;;
73733;SDS011;62039;50.000;9.064;2022-08-01T02:28:37;0.80;;;0.80;;
73733;SDS011;62039;50.000;9.064;2022-08-01T02:31:10;1.00;;;0.90;;
73733;SDS011;62039;50.000;9.064;2022-08-01T02:33:42;1.17;;;0.90;;
73733;SDS011;62039;50.000;9.064;2022-08-01T02:36:11;1.13;;;0.90;;
73733;SDS011;62039;50.000;9.064;2022-08-01T02:38:59;3.53;;;1.10;;
73733;SDS011;62039;50.000;9.064;2022-08-01T02:41:27;0.80;;;0.80;;
73733;SDS011;62039;50.000;9.064;2022-08-01T02:43:58;0.70;;;0.70;;
73733;SDS011;62039;50.000;9.064;2022-08-01T02:46:28;0.80;;;0.80;;
73733;SDS011;62039;50.000;9.064;2022-08-01T02:49:00;0.80;;;0.80;;
73733;SDS011;62039;50.000;9.064;2022-08-01T02:51:31;1.13;;;0.80;;
73733;SDS011;62039;50.000;9.064;2022-08-01T02:54:00;0.93;;;0.90;;
73733;SDS011;62039;50.000;9.064;2022-08-01T02:56:29;0.90;;;0.73;;
73733;SDS011;62039;50.000;9.064;2022-08-01T02:58:58;1.27;;;0.90;;
73733;SDS011;62039;50.000;9.064;2022-08-01T03:01:25;0.97;;;0.97;;
73733;SDS011;62039;50.000;9.064;2022-08-01T03:03:55;1.10;;;1.00;;
73733;SDS011;62039;50.000;9.064;2022-08-01T03:06:23;0.90;;;0.80;;
73733;SDS011;62039;50.000;9.064;2022-08-01T03:08:51;1.23;;;0.80;;
73733;SDS011;62039;50.000;9.064;2022-08-01T03:11:19;1.87;;;0.80;;
73733;SDS011;62039;50.000;9.064;2022-08-01T03:13:48;0.90;;;0.87;;
73733;SDS011;62039;50.000;9.064;2022-08-01T03:16:16;0.80;;;0.80;;
73733;SDS011;62039;50.000;9.064;2022-08-01T03:18:43;1.33;;;0.83;;
73733;SDS011;62039;50.000;9.064;2022-08-01T03:21:11;1.90;;;0.90;;
73733;SDS011;62039;50.000;9.064;2022-08-01T03:23:41;1.13;;;0.90;;
73733;SDS011;62039;50.000;9.064;2022-08-01T03:26:09;0.97;;;0.90;;
73733;SDS011;62039;50.000;9.064;2022-08-01T03:28:36;1.20;;;1.10;;
73733;SDS011;62039;50.000;9.064;2022-08-01T03:31:05;1.37;;;0.90;;
73733;SDS011;62039;50.000;9.064;2022-08-01T03:33:31;1.27;;;1.00;;
73733;SDS011;62039;50.000;9.064;2022-08-01T03:35:58;1.70;;;1.00;;
73733;SDS011;62039;50.000;9.064;2022-08-01T03:38:28;1.03;;;0.93;;
73733;SDS011;62039;50.000;9.064;2022-08-01T03:41:02;1.30;;;0.87;;
73733;SDS011;62039;50.000;9.064;2022-08-01T03:43:33;1.17;;;0.90;;
73733;SDS011;62039;50.000;9.064;2022-08-01T03:46:05;0.77;;;0.70;;
73733;SDS011;62039;50.000;9.064;2022-08-01T03:48:35;0.70;;;0.70;;
73733;SDS011;62039;50.000;9.064;2022-08-01T03:51:05;0.80;;;0.80;;
73733;SDS011;62039;50.000;9.064;2022-08-01T03:53:33;0.80;;;0.77;;
73733;SDS011;62039;50.000;9.064;2022-08-01T03:56:07;0.80;;;0.80;;
73733;SDS011;62039;50.000;9.064;2022-08-01T03:58:35;1.00;;;0.90;;
73733;SDS011;62039;50.000;9.064;2022-08-01T04:01:04;1.23;;;0.93;;
73733;SDS011;62039;50.000;9.064;2022-08-01T04:03:41;0.80;;;0.80;;
73733;SDS011;62039;50.000;9.064;2022-08-01T04:06:08;1.43;;;0.90;;
73733;SDS011;62039;50.000;9.064;2022-08-01T04:08:35;0.80;;;0.80;;
73733;SDS011;62039;50.000;9.064;2022-08-01T04:11:01;1.07;;;0.90;;
73733;SDS011;62039;50.000;9.064;2022-08-01T04:13:29;0.80;;;0.80;;
73733;SDS011;62039;50.000;9.064;2022-08-01T04:16:02;1.00;;;0.70;;
73733;SDS011;62039;50.000;9.064;2022-08-01T04:18:29;0.80;;;0.80;;
73733;SDS011;62039;50.000;9.064;2022-08-01T04:20:56;0.90;;;0.90;;
73733;SDS011;62039;50.000;9.064;2022-08-01T04:23:24;1.10;;;1.00;;
73733;SDS011;62039;50.000;9.064;2022-08-01T04:25:53;0.90;;;0.80;;
73733;SDS011;62039;50.000;9.064;2022-08-01T04:28:22;1.27;;;0.83;;
73733;SDS011;62039;50.000;9.064;2022-08-01T04:30:51;0.80;;;0.80;;
73733;SDS011;62039;50.000;9.064;2022-08-01T04:33:27;0.77;;;0.77;;
73733;SDS011;62039;50.000;9.064;2022-08-01T04:35:55;1.00;;;0.83;;
73733;SDS011;62039;50.000;9.064;2022-08-01T04:38:30;0.80;;;0.80;;
73733;SDS011;62039;50.000;9.064;2022-08-01T04:40:59;1.40;;;0.73;;
73733;SDS011;62039;50.000;9.064;2022-08-01T04:43:35;1.00;;;0.90;;
73733;SDS011;62039;50.000;9.064;2022-08-01T04:46:03;0.80;;;0.77;;
73733;SDS011;62039;50.000;9.064;2022-08-01T04:48:33;1.37;;;1.10;;
73733;SDS011;62039;50.000;9.064;2022-08-01T04:51:02;1.00;;;0.80;;
73733;SDS011;62039;50.000;9.064;2022-08-01T04:53:29;0.83;;;0.70;;
73733;SDS011;62039;50.000;9.064;2022-08-01T04:55:55;0.90;;;0.70;;
73733;SDS011;62039;50.000;9.064;2022-08-01T04:58:22;0.70;;;0.70;;
73733;SDS011;62039;50.000;9.064;2022-08-01T05:00:48;1.63;;;0.80;;
73733;SDS011;62039;50.000;9.064;2022-08-01T05:03:17;0.60;;;0.60;;
73733;SDS011;62039;50.000;9.064;2022-08-01T05:05:43;0.80;;;0.77;;
73733;SDS011;62039;50.000;9.064;2022-08-01T05:08:10;1.37;;;1.00;;
73733;SDS011;62039;50.000;9.064;2022-08-01T05:10:37;1.00;;;0.80;;
73733;SDS011;62039;50.000;9.064;2022-08-01T05:13:03;0.60;;;0.60;;
73733;SDS011;62039;50.000;9.064;2022-08-01T05:15:30;0.83;;;0.60;;
73733;SDS011;62039;50.000;9.064;2022-08-01T05:17:56;0.70;;;0.70;;
73733;SDS011;62039;50.000;9.064;2022-08-01T05:20:24;0.83;;;0.70;;
73733;SDS011;62039;50.000;9.064;2022-08-01T05:22:51;1.07;;;0.77;;
73733;SDS011;62039;50.000;9.064;2022-08-01T05:25:17;0.70;;;0.70;;
73733;SDS011;62039;50.000;9.064;2022-08-01T05:27:45;1.23;;;1.10;;
73733;SDS011;62039;50.000;9.064;2022-08-01T05:30:14;1.23;;;0.80;;
73733;SDS011;62039;50.000;9.064;2022-08-01T05:32:41;2.70;;;0.90;;
73733;SDS011;62039;50.000;9.064;2022-08-01T05:35:08;1.00;;;0.80;;
73733;SDS011;62039;50.000;9.064;2022-08-01T05:37:36;0.77;;;0.67;;
73733;SDS011;62039;50.000;9.064;2022-08-01T05:40:03;0.80;;;0.80;;
73733;SDS011;62039;50.000;9.064;2022-08-01T05:42:30;0.80;;;0.80;;
73733;SDS011;62039;50.000;9.064;2022-08-01T05:44:57;1.03;;;0.73;;
73733;SDS011;62039;50.000;9.064;2022-08-01T05:47:23;1.17;;;0.80;;
73733;SDS011;62039;50.000;9.064;2022-08-01T05:49:50;1.70;;;0.90;;
73733;SDS011;62039;50.000;9.064;2022-08-01T05:52:17;1.17;;;0.90;;
73733;SDS011;62039;50.000;9.064;2022-08-01T05:54:45;0.80;;;0.80;;
73733;SDS011;62039;50.000;9.064;2022-08-01T05:57:11;1.50;;;0.90;;
73733;SDS011;62039;50.000;9.064;2022-08-01T05:59:39;1.17;;;1.00;;
73733;SDS011;62039;50.000;9.064;2022-08-01T06:02:06;1.73;;;0.70;;
73733;SDS011;62039;50.000;9.064;2022-08-01T06:04:33;1.83;;;0.60;;
73733;SDS011;62039;50.000;9.064;2022-08-01T06:07:00;2.50;;;0.80;;
73733;SDS011;62039;50.000;9.064;2022-08-01T06:09:26;0.83;;;0.70;;
73733;SDS011;62039;50.000;9.064;2022-08-01T06:11:54;0.83;;;0.70;;
73733;SDS011;62039;50.000;9.064;2022-08-01T06:14:21;0.70;;;0.70;;
73733;SDS011;62039;50.000;9.064;2022-08-01T06:16:47;0.60;;;0.60;;
73733;SDS011;62039;50.000;9.064;2022-08-01T06:19:14;1.10;;;0.60;;
73733;SDS011;62039;50.000;9.064;2022-08-01T06:21:41;0.97;;;0.70;;
73733;SDS011;62039;50.000;9.064;2022-08-01T06:24:07;0.70;;;0.63;;
73733;SDS011;62039;50.000;9.064;2022-08-01T06:26:34;1.73;;;0.90;;
73733;SDS011;62039;50.000;9.064;2022-08-01T06:29:02;0.80;;;0.70;;
73733;SDS011;62039;50.000;9.064;2022-08-01T06:31:28;0.70;;;0.70;;
73733;SDS011;62039;50.000;9.064;2022-08-01T06:33:59;1.40;;;0.80;;
73733;SDS011;62039;50.000;9.064;2022-08-01T06:36:25;0.80;;;0.77;;
73733;SDS011;62039;50.000;9.064;2022-08-01T06:38:52;1.23;;;1.00;;
73733;SDS011;62039;50.000;9.064;2022-08-01T06:41:19;1.00;;;0.77;;
73733;SDS011;62039;50.000;9.064;2022-08-01T06:43:45;0.70;;;0.67;;
73733;SDS011;62039;50.000;9.064;2022-08-01T06:46:13;1.90;;;0.90;;
73733;SDS011;62039;50.000;9.064;2022-08-01T06:48:40;0.60;;;0.60;;
73733;SDS011;62039;50.000;9.064;2022-08-01T06:51:06;1.07;;;0.77;;
73733;SDS011;62039;50.000;9.064;2022-08-01T06:53:33;0.90;;;0.90;;
73733;SDS011;62039;50.000;9.064;2022-08-01T06:56:02;0.70;;;0.70;;
73733;SDS011;62039;50.000;9.064;2022-08-01T06:58:29;2.00;;;0.70;;
73733;SDS011;62039;50.000;9.064;2022-08-01T07:00:57;0.70;;;0.70;;
73733;SDS011;62039;50.000;9.064;2022-08-01T07:03:26;1.00;;;0.77;;
73733;SDS011;62039;50.000;9.064;2022-08-01T07:06:12;0.97;;;0.83;;
73733;SDS011;62039;50.000;9.064;2022-08-01T07:08:40;0.90;;;0.80;;
73733;SDS011;62039;50.000;9.064;2022-08-01T07:11:07;0.90;;;0.73;;
73733;SDS011;62039;50.000;9.064;2022-08-01T07:13:34;1.20;;;0.90;;
73733;SDS011;62039;50.000;9.064;2022-08-01T07:16:09;1.33;;;0.90;;
73733;SDS011;62039;50.000;9.064;2022-08-01T07:18:37;1.10;;;0.90;;
73733;SDS011;62039;50.000;9.064;2022-08-01T07:21:04;1.10;;;1.00;;
73733;SDS011;62039;50.000;9.064;2022-08-01T07:23:30;1.20;;;0.90;;
73733;SDS011;62039;50.000;9.064;2022-08-01T07:26:02;1.23;;;1.00;;
73733;SDS011;62039;50.000;9.064;2022-08-01T07:28:29;1.27;;;0.93;;
73733;SDS011;62039;50.000;9.064;2022-08-01T07:30:56;1.10;;;1.00;;
73733;SDS011;62039;50.000;9.064;2022-08-01T07:33:23;0.80;;;0.80;;
73733;SDS011;62039;50.000;9.064;2022-08-01T07:35:51;1.70;;;0.90;;
73733;SDS011;62039;50.000;9.064;2022-08-01T07:38:17;1.43;;;1.20;;
73733;SDS011;62039;50.000;9.064;2022-08-01T07:40:44;1.00;;;0.90;;
73733;SDS011;62039;50.000;9.064;2022-08-01T07:43:11;2.30;;;1.00;;
73733;SDS011;62039;50.000;9.064;2022-08-01T07:45:37;1.03;;;0.93;;
73733;SDS011;62039;50.000;9.064;2022-08-01T07:48:10;0.93;;;0.90;;
73733;SDS011;62039;50.000;9.064;2022-08-01T07:50:37;1.00;;;0.90;;
73733;SDS011;62039;50.000;9.064;2022-08-01T07:53:05;0.93;;;0.90;;
73733;SDS011;62039;50.000;9.064;2022-08-01T07:55:31;1.53;;;0.90;;
73733;SDS011;62039;50.000;9.064;2022-08-01T07:57:58;1.40;;;1.17;;
73733;SDS011;62039;50.000;9.064;2022-08-01T08:00:25;1.00;;;0.87;;
73733;SDS011;62039;50.000;9.064;2022-08-01T08:02:51;0.80;;;0.80;;
73733;SDS011;62039;50.000;9.064;2022-08-01T08:05:18;1.33;;;0.80;;
73733;SDS011;62039;50.000;9.064;2022-08-01T08:08:06;1.17;;;0.80;;
73733;SDS011;62039;50.000;9.064;2022-08-01T08:10:33;0.80;;;0.80;;
73733;SDS011;62039;50.000;9.064;2022-08-01T08:13:00;2.83;;;1.30;;
73733;SDS011;62039;50.000;9.064;2022-08-01T08:15:27;2.53;;;1.10;;
73733;SDS011;62039;50.000;9.064;2022-08-01T08:17:53;1.50;;;1.30;;
73733;SDS011;62039;50.000;9.064;2022-08-01T08:20:20;0.80;;;0.80;;
73733;SDS011;62039;50.000;9.064;2022-08-01T08:22:47;1.17;;;1.03;;
73733;SDS011;62039;50.000;9.064;2022-08-01T08:25:15;1.87;;;1.10;;
73733;SDS011;62039;50.000;9.064;2022-08-01T08:27:41;1.70;;;1.20;;
73733;SDS011;62039;50.000;9.064;2022-08-01T08:30:08;1.30;;;1.20;;
73733;SDS011;62039;50.000;9.064;2022-08-01T08:32:35;1.40;;;1.30;;
73733;SDS011;62039;50.000;9.064;2022-08-01T08:35:02;2.80;;;0.90;;
73733;SDS011;62039;50.000;9.064;2022-08-01T08:37:30;1.20;;;1.10;;
73733;SDS011;62039;50.000;9.064;2022-08-01T08:40:04;1.70;;;1.23;;
73733;SDS011;62039;50.000;9.064;2022-08-01T08:42:33;1.17;;;1.07;;
73733;SDS011;62039;50.000;9.064;2022-08-01T08:45:00;1.23;;;1.10;;
73733;SDS011;62039;50.000;9.064;2022-08-01T08:47:28;1.03;;;1.00;;
73733;SDS011;62039;50.000;9.064;2022-08-01T08:49:58;1.37;;;1.10;;
73733;SDS011;62039;50.000;9.064;2022-08-01T08:52:26;1.23;;;1.13;;
73733;SDS011;62039;50.000;9.064;2022-08-01T08:54:53;0.97;;;0.93;;
73733;SDS011;62039;50.000;9.064;2022-08-01T08:57:21;1.17;;;1.07;;
73733;SDS011;62039;50.000;9.064;2022-08-01T08:59:49;3.23;;;1.10;;
73733;SDS011;62039;50.000;9.064;2022-08-01T09:02:16;1.57;;;1.20;;
73733;SDS011;62039;50.000;9.064;2022-08-01T09:04:43;1.40;;;1.00;;
73733;SDS011;62039;50.000;9.064;2022-08-01T09:07:10;1.03;;;1.03;;
73733;SDS011;62039;50.000;9.064;2022-08-01T09:09:37;1.10;;;1.00;;
73733;SDS011;62039;50.000;9.064;2022-08-01T09:12:07;1.30;;;1.20;;
73733;SDS011;62039;50.000;9.064;2022-08-01T09:14:34;1.40;;;1.30;;
73733;SDS011;62039;50.000;9.064;2022-08-01T09:17:12;1.47;;;1.33;;
73733;SDS011;62039;50.000;9.064;2022-08-01T09:19:40;1.20;;;1.10;;
73733;SDS011;62039;50.000;9.064;2022-08-01T09:22:08;1.40;;;1.30;;
73733;SDS011;62039;50.000;9.064;2022-08-01T09:24:37;1.13;;;1.03;;
73733;SDS011;62039;50.000;9.064;2022-08-01T09:27:14;0.97;;;0.97;;
73733;SDS011;62039;50.000;9.064;2022-08-01T09:29:42;1.37;;;1.23;;
73733;SDS011;62039;50.000;9.064;2022-08-01T09:32:09;1.40;;;1.30;;
73733;SDS011;62039;50.000;9.064;2022-08-01T09:34:42;1.40;;;1.20;;
73733;SDS011;62039;50.000;9.064;2022-08-01T09:37:11;1.40;;;1.30;;
73733;SDS011;62039;50.000;9.064;2022-08-01T09:39:39;2.17;;;1.40;;
73733;SDS011;62039;50.000;9.064;2022-08-01T09:42:18;1.50;;;1.40;;
73733;SDS011;62039;50.000;9.064;2022-08-01T09:44:53;1.40;;;1.30;;
73733;SDS011;62039;50.000;9.064;2022-08-01T09:47:20;1.30;;;1.17;;
73733;SDS011;62039;50.000;9.064;2022-08-01T09:49:54;0.93;;;0.93;;
73733;SDS011;62039;50.000;9.064;2022-08-01T09:52:23;1.20;;;1.10;;
73733;SDS011;62039;50.000;9.064;2022-08-01T09:54:55;1.23;;;1.13;;
73733;SDS011;62039;50.000;9.064;2022-08-01T09:57:23;1.27;;;1.10;;
73733;SDS011;62039;50.000;9.064;2022-08-01T09:59:51;1.20;;;1.10;;
73733;SDS011;62039;50.000;9.064;2022-08-01T10:02:28;1.37;;;1.27;;
73733;SDS011;62039;50.000;9.064;2022-08-01T10:04:58;2.20;;;1.50;;
73733;SDS011;62039;50.000;9.064;2022-08-01T10:07:33;5.33;;;1.70;;
73733;SDS011;62039;50.000;9.064;2022-08-01T10:10:10;1.43;;;1.23;;
73733;SDS011;62039;50.000;9.064;2022-08-01T10:12:40;1.33;;;1.20;;
73733;SDS011;62039;50.000;9.064;2022-08-01T10:15:11;1.33;;;1.23;;
73733;SDS011;62039;50.000;9.064;2022-08-01T10:17:44;1.20;;;1.10;;
73733;SDS011;62039;50.000;9.064;2022-08-01T10:20:22;5.40;;;1.67;;
73733;SDS011;62039;50.000;9.064;2022-08-01T10:22:58;7.23;;;1.70;;
73733;SDS011;62039;50.000;9.064;2022-08-01T10:25:28;3.83;;;1.33;;
73733;SDS011;62039;50.000;9.064;2022-08-01T10:28:10;1.20;;;1.10;;
73733;SDS011;62039;50.000;9.064;2022-08-01T10:30:49;1.47;;;1.10;;
73733;SDS011;62039;50.000;9.064;2022-08-01T10:33:17;2.00;;;1.20;;
73733;SDS011;62039;50.000;9.064;2022-08-01T10:36:05;1.40;;;1.30;;
73733;SDS011;62039;50.000;9.064;2022-08-01T10:38:34;1.07;;;1.07;;
73733;SDS011;62039;50.000;9.064;2022-08-01T10:41:02;1.30;;;1.20;;
73733;SDS011;62039;50.000;9.064;2022-08-01T10:43:33;1.47;;;0.97;;
73733;SDS011;62039;50.000;9.064;2022-08-01T10:46:01;1.27;;;1.13;;
73733;SDS011;62039;50.000;9.064;2022-08-01T10:48:29;1.30;;;0.97;;
73733;SDS011;62039;50.000;9.064;2022-08-01T10:51:03;1.03;;;1.00;;
73733;SDS011;62039;50.000;9.064;2022-08-01T10:53:46;3.43;;;1.40;;
73733;SDS011;62039;50.000;9.064;2022-08-01T10:56:15;1.40;;;1.30;;
73733;SDS011;62039;50.000;9.064;2022-08-01T10:58:42;1.30;;;1.20;;
73733;SDS011;62039;50.000;9.064;2022-08-01T11:01:23;1.47;;;1.37;;
73733;SDS011;62039;50.000;9.064;2022-08-01T11:06:46;2.30;;;1.67;;
73733;SDS011;62039;50.000;9.064;2022-08-01T11:09:29;1.37;;;1.27;;
73733;SDS011;62039;50.000;9.064;2022-08-01T11:12:04;3.27;;;1.80;;
73733;SDS011;62039;50.000;9.064;2022-08-01T11:14:33;1.20;;;1.10;;
73733;SDS011;62039;50.000;9.064;2022-08-01T11:17:29;1.70;;;1.60;;
73733;SDS011;62039;50.000;9.064;2022-08-01T11:20:04;1.50;;;1.40;;
73733;SDS011;62039;50.000;9.064;2022-08-01T11:22:45;2.57;;;2.00;;
73733;SDS011;62039;50.000;9.064;2022-08-01T11:28:36;2.87;;;1.30;;
73733;SDS011;62039;50.000;9.064;2022-08-01T11:31:24;1.60;;;1.50;;
73733;SDS011;62039;50.000;9.064;2022-08-01T11:33:52;2.37;;;1.47;;
73733;SDS011;62039;50.000;9.064;2022-08-01T11:36:20;1.47;;;1.37;;
73733;SDS011;62039;50.000;9.064;2022-08-01T11:39:12;1.50;;;1.40;;
73733;SDS011;62039;50.000;9.064;2022-08-01T11:41:41;1.50;;;1.40;;
73733;SDS011;62039;50.000;9.064;2022-08-01T11:44:11;1.50;;;1.40;;
73733;SDS011;62039;50.000;9.064;2022-08-01T11:46:49;3.17;;;1.70;;
73733;SDS011;62039;50.000;9.064;2022-08-01T11:49:32;1.40;;;1.30;;
73733;SDS011;62039;50.000;9.064;2022-08-01T11:52:03;1.53;;;1.43;;
73733;SDS011;62039;50.000;9.064;2022-08-01T11:54:33;1.50;;;1.17;;
73733;SDS011;62039;50.000;9.064;2022-08-01T11:57:03;1.40;;;1.30;;
73733;SDS011;62039;50.000;9.064;2022-08-01T11:59:35;1.60;;;1.50;;
73733;SDS011;62039;50.000;9.064;2022-08-01T12:02:19;3.20;;;1.30;;
73733;SDS011;62039;50.000;9.064;2022-08-01T12:04:56;1.27;;;1.20;;
73733;SDS011;62039;50.000;9.064;2022-08-01T12:07:24;1.60;;;1.50;;
73733;SDS011;62039;50.000;9.064;2022-08-01T12:10:01;1.30;;;1.20;;
73733;SDS011;62039;50.000;9.064;2022-08-01T12:12:30;1.30;;;0.97;;
73733;SDS011;62039;50.000;9.064;2022-08-01T12:14:58;1.30;;;1.20;;
73733;SDS011;62039;50.000;9.064;2022-08-01T12:17:33;1.37;;;1.27;;
73733;SDS011;62039;50.000;9.064;2022-08-01T12:20:01;1.20;;;1.10;;
73733;SDS011;62039;50.000;9.064;2022-08-01T12:22:31;1.10;;;1.00;;
73733;SDS011;62039;50.000;9.064;2022-08-01T12:25:05;1.20;;;1.10;;
73733;SDS011;62039;50.000;9.064;2022-08-01T12:27:33;1.33;;;1.23;;
73733;SDS011;62039;50.000;9.064;2022-08-01T12:30:01;1.60;;;1.08;;
73733;SDS011;62039;50.000;9.064;2022-08-01T12:32:32;1.48;;;1.10;;
73733;SDS011;62039;50.000;9.064;2022-08-01T12:35:02;1.58;;;1.48;;
73733;SDS011;62039;50.000;9.064;2022-08-01T12:37:30;1.08;;;0.98;;
73733;SDS011;62039;50.000;9.064;2022-08-01T12:39:56;1.00;;;1.00;;
73733;SDS011;62039;50.000;9.064;2022-08-01T12:42:25;0.98;;;0.90;;
73733;SDS011;62039;50.000;9.064;2022-08-01T12:44:52;1.00;;;1.00;;
73733;SDS011;62039;50.000;9.064;2022-08-01T12:47:19;1.95;;;1.10;;
73733;SDS011;62039;50.000;9.064;2022-08-01T12:49:47;1.00;;;1.00;;
73733;SDS011;62039;50.000;9.064;2022-08-01T12:52:14;1.10;;;1.00;;
73733;SDS011;62039;50.000;9.064;2022-08-01T12:57:28;1.10;;;1.00;;
73733;SDS011;62039;50.000;9.064;2022-08-01T13:00:04;1.00;;;1.00;;
73733;SDS011;62039;50.000;9.064;2022-08-01T13:02:36;0.80;;;0.80;;
73733;SDS011;62039;50.000;9.064;2022-08-01T13:05:03;0.90;;;0.90;;
73733;SDS011;62039;50.000;9.064;2022-08-01T13:07:34;1.17;;;1.08;;
73733;SDS011;62039;50.000;9.064;2022-08-01T13:10:11;1.10;;;1.02;;
73733;SDS011;62039;50.000;9.064;2022-08-01T13:12:41;1.25;;;0.98;;
73733;SDS011;62039;50.000;9.064;2022-08-01T13:15:19;0.98;;;0.95;;
73733;SDS011;62039;50.000;9.064;2022-08-01T13:17:48;1.00;;;0.90;;
73733;SDS011;62039;50.000;9.064;2022-08-01T13:20:21;1.27;;;0.90;;
73733;SDS011;62039;50.000;9.064;2022-08-01T13:22:49;0.95;;;0.95;;
73733;SDS011;62039;50.000;9.064;2022-08-01T13:25:16;1.20;;;1.10;;
73733;SDS011;62039;50.000;9.064;2022-08-01T13:27:48;2.67;;;1.10;;
73733;SDS011;62039;50.000;9.064;2022-08-01T13:30:19;1.33;;;1.00;;
73733;SDS011;62039;50.000;9.064;2022-08-01T13:32:56;0.70;;;0.70;;
73733;SDS011;62039;50.000;9.064;2022-08-01T13:35:24;1.15;;;0.90;;
73733;SDS011;62039;50.000;9.064;2022-08-01T13:37:50;0.70;;;0.70;;
73733;SDS011;62039;50.000;9.064;2022-08-01T13:40:22;1.30;;;0.88;;
73733;SDS011;62039;50.000;9.064;2022-08-01T13:42:52;1.00;;;1.00;;
73733;SDS011;62039;50.000;9.064;2022-08-01T13:45:18;1.45;;;1.00;;
73733;SDS011;62039;50.000;9.064;2022-08-01T13:47:47;1.13;;;1.02;;
73733;SDS011;62039;50.000;9.064;2022-08-01T13:50:34;1.85;;;1.08;;
73733;SDS011;62039;50.000;9.064;2022-08-01T13:53:01;1.92;;;0.80;;
73733;SDS011;62039;50.000;9.064;2022-08-01T13:55:27;1.02;;;0.90;;
73733;SDS011;62039;50.000;9.064;2022-08-01T13:58:02;0.80;;;0.80;;
73733;SDS011;62039;50.000;9.064;2022-08-01T14:00:28;1.53;;;0.80;;
73733;SDS011;62039;50.000;9.064;2022-08-01T14:02:55;0.93;;;0.90;;
73733;SDS011;62039;50.000;9.064;2022-08-01T14:05:21;0.98;;;0.98;;
73733;SDS011;62039;50.000;9.064;2022-08-01T14:07:48;1.77;;;0.90;;
73733;SDS011;62039;50.000;9.064;2022-08-01T14:10:14;0.88;;;0.88;;
73733;SDS011;62039;50.000;9.064;2022-08-01T14:12:45;0.95;;;0.95;;
73733;SDS011;62039;50.000;9.064;2022-08-01T14:15:14;0.90;;;0.90;;
73733;SDS011;62039;50.000;9.064;2022-08-01T14:18:01;0.82;;;0.82;;
73733;SDS011;62039;50.000;9.064;2022-08-01T14:20:27;0.82;;;0.82;;
73733;SDS011;62039;50.000;9.064;2022-08-01T14:22:54;2.35;;;1.00;;
73733;SDS011;62039;50.000;9.064;2022-08-01T14:25:20;1.10;;;0.98;;
73733;SDS011;62039;50.000;9.064;2022-08-01T14:28:07;1.17;;;1.00;;
73733;SDS011;62039;50.000;9.064;2022-08-01T14:30:35;0.85;;;0.85;;
73733;SDS011;62039;50.000;9.064;2022-08-01T14:33:02;1.10;;;1.00;;
73733;SDS011;62039;50.000;9.064;2022-08-01T14:35:29;1.35;;;1.00;;
73733;SDS011;62039;50.000;9.064;2022-08-01T14:38:15;0.90;;;0.90;;
73733;SDS011;62039;50.000;9.064;2022-08-01T14:40:56;1.10;;;1.00;;
73733;SDS011;62039;50.000;9.064;2022-08-01T14:43:23;1.10;;;1.00;;
73733;SDS011;62039;50.000;9.064;2022-08-01T14:45:59;1.08;;;0.98;;
73733;SDS011;62039;50.000;9.064;2022-08-01T14:48:26;1.53;;;1.10;;
73733;SDS011;62039;50.000;9.064;2022-08-01T14:50:55;0.80;;;0.80;;
73733;SDS011;62039;50.000;9.064;2022-08-01T14:53:21;1.10;;;0.90;;
73733;SDS011;62039;50.000;9.064;2022-08-01T14:55:48;1.30;;;1.13;;
73733;SDS011;62039;50.000;9.064;2022-08-01T14:58:14;1.47;;;1.20;;
73733;SDS011;62039;50.000;9.064;2022-08-01T15:00:41;1.10;;;1.00;;
73733;SDS011;62039;50.000;9.064;2022-08-01T15:03:09;0.97;;;0.97;;
73733;SDS011;62039;50.000;9.064;2022-08-01T15:05:35;1.03;;;1.03;;
73733;SDS011;62039;50.000;9.064;2022-08-01T15:08:02;1.30;;;1.20;;
73733;SDS011;62039;50.000;9.064;2022-08-01T15:10:29;0.97;;;0.90;;
73733;SDS011;62039;50.000;9.064;2022-08-01T15:12:56;1.30;;;1.20;;